createdAt,value
2018-11-23T00:00:08.732Z,40.10
2018-11-23T00:01:08.678Z,40.00
2018-11-23T00:02:08.666Z,41.70
2018-11-23T00:03:08.655Z,42.70
2018-11-23T00:04:08.641Z,41.20
2018-11-23T00:05:08.631Z,42.70
2018-11-23T00:06:08.667Z,38.30
2018-11-23T00:07:08.609Z,40.60
2018-11-23T00:08:08.598Z,39.90
2018-11-23T00:09:08.587Z,42.20
2018-11-23T00:10:08.576Z,41.70
2018-11-23T00:11:08.607Z,40.80
2018-11-23T00:12:08.598Z,43.20
2018-11-23T00:13:08.544Z,40.10
2018-11-23T00:14:08.530Z,43.10
2018-11-23T00:15:08.519Z,40.30
2018-11-23T00:16:08.509Z,39.80
2018-11-23T00:17:08.550Z,42.10
2018-11-23T00:18:08.485Z,42.60
2018-11-23T00:19:08.476Z,42.60
2018-11-23T00:20:08.466Z,42.60
2018-11-23T00:21:08.454Z,41.60
2018-11-23T00:22:08.442Z,42.80
2018-11-23T00:23:08.584Z,42.00
2018-11-23T00:24:08.421Z,41.20
2018-11-23T00:25:08.410Z,42.80
2018-11-23T00:26:08.400Z,44.00
2018-11-23T00:27:08.387Z,46.60
2018-11-23T00:28:08.377Z,38.80
2018-11-23T00:29:08.413Z,43.70
2018-11-23T00:30:08.356Z,41.70
2018-11-23T00:31:08.344Z,45.20
2018-11-23T00:32:08.336Z,41.10
2018-11-23T00:33:08.370Z,43.20
2018-11-23T00:34:08.310Z,42.60
2018-11-23T00:35:08.300Z,43.10
2018-11-23T00:36:08.289Z,43.20
2018-11-23T00:37:08.276Z,41.90
2018-11-23T00:38:08.267Z,43.80
2018-11-23T00:39:08.316Z,42.60
2018-11-23T00:40:08.246Z,42.70
2018-11-23T00:41:08.233Z,42.30
2018-11-23T00:42:08.223Z,43.40
2018-11-23T00:43:08.216Z,43.60
2018-11-23T00:44:08.200Z,41.50
2018-11-23T00:45:08.237Z,44.10
2018-11-23T00:46:08.179Z,42.00
2018-11-23T00:47:08.167Z,43.20
2018-11-23T00:48:08.156Z,43.50
2018-11-23T00:49:08.146Z,42.70
2018-11-23T00:50:08.134Z,45.70
2018-11-23T00:51:08.424Z,41.20
2018-11-23T00:52:08.112Z,45.30
2018-11-23T00:53:08.100Z,43.60
2018-11-23T00:54:08.091Z,42.50
2018-11-23T00:55:08.081Z,43.00
2018-11-23T00:56:08.070Z,44.80
2018-11-23T00:57:08.109Z,44.30
2018-11-23T00:58:08.048Z,42.00
2018-11-23T00:59:08.036Z,44.20
2018-11-23T01:00:08.023Z,45.20
2018-11-23T01:01:08.013Z,42.50
2018-11-23T01:02:08.002Z,42.60
2018-11-23T01:03:08.039Z,44.10
2018-11-23T01:04:07.980Z,44.60
2018-11-23T01:05:07.970Z,42.30
2018-11-23T01:06:07.967Z,44.50
2018-11-23T01:07:07.950Z,45.80
2018-11-23T01:08:07.939Z,41.70
2018-11-23T01:09:08.080Z,44.00
2018-11-23T01:10:07.916Z,43.00
2018-11-23T01:11:07.905Z,45.00
2018-11-23T01:12:07.892Z,44.10
2018-11-23T01:13:07.879Z,43.90
2018-11-23T01:14:07.916Z,45.70
2018-11-23T01:15:07.859Z,44.90
2018-11-23T01:16:07.847Z,45.10
2018-11-23T01:17:07.837Z,46.10
2018-11-23T01:18:07.870Z,44.10
2018-11-23T01:19:07.817Z,41.80
2018-11-23T01:20:07.803Z,47.40
2018-11-23T01:21:07.793Z,45.70
2018-11-23T01:22:07.781Z,43.50
2018-11-23T01:23:07.770Z,46.80
2018-11-23T01:24:07.804Z,44.30
2018-11-23T01:25:07.749Z,45.90
2018-11-23T01:26:07.736Z,45.90
2018-11-23T01:27:07.726Z,44.80
2018-11-23T01:28:07.716Z,45.10
2018-11-23T01:29:07.704Z,45.40
2018-11-23T01:30:07.736Z,47.00
2018-11-23T01:31:07.683Z,45.80
2018-11-23T01:32:07.670Z,45.10
2018-11-23T01:33:07.660Z,43.60
2018-11-23T01:34:07.650Z,43.10
2018-11-23T01:35:07.681Z,47.60
2018-11-23T01:36:07.671Z,47.00
2018-11-23T01:37:07.615Z,45.20
2018-11-23T01:38:07.604Z,44.00
2018-11-23T01:39:07.593Z,44.50
2018-11-23T01:40:07.588Z,45.00
2018-11-23T01:41:07.624Z,45.30
2018-11-23T01:42:07.560Z,42.60
2018-11-23T01:43:07.552Z,45.70
2018-11-23T01:44:07.539Z,46.80
2018-11-23T01:45:07.530Z,44.60
2018-11-23T01:46:07.520Z,46.30
2018-11-23T01:47:07.554Z,46.50
2018-11-23T01:48:07.496Z,44.50
2018-11-23T01:49:07.484Z,49.60
2018-11-23T01:50:07.473Z,42.80
2018-11-23T01:51:07.462Z,42.80
2018-11-23T01:52:07.451Z,45.90
2018-11-23T01:53:07.487Z,49.90
2018-11-23T01:54:07.429Z,44.10
2018-11-23T01:55:07.421Z,47.80
2018-11-23T01:56:07.407Z,45.60
2018-11-23T01:57:07.400Z,45.70
2018-11-23T01:58:07.430Z,46.40
2018-11-23T01:59:07.375Z,45.50
2018-11-23T02:00:07.361Z,44.90
2018-11-23T02:01:07.355Z,47.20
2018-11-23T02:02:07.341Z,45.90
2018-11-23T02:03:07.376Z,45.30
2018-11-23T02:04:07.317Z,46.60
2018-11-23T02:05:07.363Z,45.30
2018-11-23T02:06:07.296Z,44.00
2018-11-23T02:07:07.287Z,45.60
2018-11-23T02:08:07.276Z,44.40
2018-11-23T02:09:07.263Z,43.70
2018-11-23T02:10:07.253Z,46.40
2018-11-23T02:11:07.285Z,43.40
2018-11-23T02:12:07.277Z,43.70
2018-11-23T02:13:07.220Z,45.10
2018-11-23T02:14:07.209Z,45.70
2018-11-23T02:15:07.199Z,42.80
2018-11-23T02:16:07.187Z,44.90
2018-11-23T02:17:07.175Z,46.80
2018-11-23T02:18:07.210Z,45.70
2018-11-23T02:19:07.153Z,43.10
2018-11-23T02:20:07.147Z,47.50
2018-11-23T02:21:07.165Z,46.20
2018-11-23T02:22:07.121Z,44.20
2018-11-23T02:23:07.109Z,43.80
2018-11-23T02:24:07.147Z,47.20
2018-11-23T02:25:07.089Z,42.80
2018-11-23T02:26:07.079Z,46.30
2018-11-23T02:27:07.066Z,45.90
2018-11-23T02:28:07.071Z,41.90
2018-11-23T02:29:07.043Z,47.70
2018-11-23T02:30:07.080Z,45.70
2018-11-23T02:31:07.021Z,44.30
2018-11-23T02:32:07.011Z,44.80
2018-11-23T02:33:07.048Z,43.60
2018-11-23T02:34:06.989Z,44.50
2018-11-23T02:35:06.977Z,44.70
2018-11-23T02:36:06.969Z,47.00
2018-11-23T02:37:06.954Z,46.20
2018-11-23T02:38:06.945Z,46.10
2018-11-23T02:39:06.977Z,46.70
2018-11-23T02:40:06.922Z,45.10
2018-11-23T02:41:06.909Z,48.20
2018-11-23T02:42:06.899Z,45.40
2018-11-23T02:43:06.934Z,47.40
2018-11-23T02:44:06.878Z,44.60
2018-11-23T02:45:06.866Z,47.00
2018-11-23T02:46:06.856Z,45.10
2018-11-23T02:47:06.846Z,47.40
2018-11-23T02:48:06.833Z,46.20
2018-11-23T02:49:06.877Z,46.50
2018-11-23T02:50:06.812Z,46.50
2018-11-23T02:51:06.802Z,48.60
2018-11-23T02:52:06.792Z,45.10
2018-11-23T02:53:06.793Z,44.60
2018-11-23T02:54:06.767Z,47.60
2018-11-23T02:55:06.817Z,46.00
2018-11-23T02:56:06.746Z,45.10
2018-11-23T02:57:06.737Z,46.20
2018-11-23T02:58:06.725Z,48.60
2018-11-23T02:59:06.711Z,48.30
2018-11-23T03:00:06.701Z,46.70
2018-11-23T03:01:06.735Z,46.40
2018-11-23T03:02:06.678Z,46.30
2018-11-23T03:03:06.666Z,48.70
2018-11-23T03:04:06.656Z,46.70
2018-11-23T03:05:06.646Z,46.80
2018-11-23T03:06:06.681Z,46.30
2018-11-23T03:07:06.629Z,47.90
2018-11-23T03:08:06.614Z,46.10
2018-11-23T03:09:06.602Z,43.60
2018-11-23T03:10:06.646Z,48.60
2018-11-23T03:11:06.579Z,45.40
2018-11-23T03:12:06.571Z,45.40
2018-11-23T03:13:06.557Z,47.80
2018-11-23T03:14:06.550Z,45.50
2018-11-23T03:15:06.536Z,50.10
2018-11-23T03:16:06.821Z,47.70
2018-11-23T03:17:06.512Z,48.00
2018-11-23T03:18:06.503Z,45.60
2018-11-23T03:19:06.496Z,48.60
2018-11-23T03:20:06.480Z,49.50
2018-11-23T03:21:06.469Z,47.10
2018-11-23T03:22:06.505Z,47.40
2018-11-23T03:23:06.448Z,47.60
2018-11-23T03:24:06.437Z,49.10
2018-11-23T03:25:06.471Z,47.30
2018-11-23T03:26:06.416Z,51.10
2018-11-23T03:27:06.402Z,51.10
2018-11-23T03:28:06.395Z,46.20
2018-11-23T03:29:06.382Z,47.80
2018-11-23T03:30:06.372Z,49.90
2018-11-23T03:31:12.288Z,45.20
2018-11-23T03:32:07.355Z,46.40
2018-11-23T03:33:06.337Z,46.90
2018-11-23T03:34:06.376Z,47.40
2018-11-23T03:35:06.319Z,50.60
2018-11-23T03:36:06.308Z,48.00
2018-11-23T03:37:06.346Z,44.80
2018-11-23T03:38:06.287Z,48.00
2018-11-23T03:39:06.273Z,47.80
2018-11-23T03:40:06.260Z,47.90
2018-11-23T03:41:06.248Z,45.00
2018-11-23T03:42:06.239Z,46.70
2018-11-23T03:43:06.272Z,47.30
2018-11-23T03:44:06.217Z,47.10
2018-11-23T03:45:06.258Z,47.10
2018-11-23T03:46:06.196Z,48.10
2018-11-23T03:47:06.182Z,44.30
2018-11-23T03:48:06.174Z,47.80
2018-11-23T03:49:06.162Z,47.10
2018-11-23T03:50:06.151Z,45.60
2018-11-23T03:51:06.186Z,44.20
2018-11-23T03:52:06.129Z,47.10
2018-11-23T03:53:06.122Z,49.30
2018-11-23T03:54:06.108Z,45.40
2018-11-23T03:55:06.097Z,44.80
2018-11-23T03:56:06.128Z,44.80
2018-11-23T03:57:06.124Z,48.60
2018-11-23T03:58:06.062Z,49.10
2018-11-23T03:59:06.051Z,46.90
2018-11-23T04:00:06.041Z,44.90
2018-11-23T04:01:06.029Z,46.90
2018-11-23T04:02:06.019Z,45.70
2018-11-23T04:03:06.054Z,45.20
2018-11-23T04:04:05.995Z,44.30
2018-11-23T04:05:05.983Z,45.00
2018-11-23T04:06:05.976Z,45.90
2018-11-23T04:07:05.963Z,45.70
2018-11-23T04:08:05.996Z,47.00
2018-11-23T04:09:05.941Z,46.70
2018-11-23T04:10:05.935Z,48.00
2018-11-23T04:11:05.964Z,47.20
2018-11-23T04:12:05.908Z,46.50
2018-11-23T04:13:05.897Z,46.90
2018-11-23T04:14:05.885Z,47.40
2018-11-23T04:15:05.873Z,46.90
2018-11-23T04:16:05.907Z,46.50
2018-11-23T04:17:05.853Z,44.90
2018-11-23T04:18:05.843Z,44.00
2018-11-23T04:19:05.831Z,45.80
2018-11-23T04:20:05.820Z,42.80
2018-11-23T04:21:05.861Z,46.00
2018-11-23T04:22:05.799Z,48.80
2018-11-23T04:23:05.788Z,47.30
2018-11-23T04:24:05.775Z,47.30
2018-11-23T04:25:05.765Z,47.30
2018-11-23T04:26:05.758Z,46.40
2018-11-23T04:27:06.041Z,46.50
2018-11-23T04:28:05.733Z,49.00
2018-11-23T04:29:05.720Z,46.20
2018-11-23T04:30:05.711Z,47.20
2018-11-23T04:31:05.697Z,48.20
2018-11-23T04:32:05.687Z,47.50
2018-11-23T04:33:05.722Z,46.90
2018-11-23T04:34:05.665Z,49.20
2018-11-23T04:35:05.656Z,51.00
2018-11-23T04:36:05.644Z,47.90
2018-11-23T04:37:05.633Z,48.00
2018-11-23T04:38:05.621Z,47.40
2018-11-23T04:39:05.655Z,48.70
2018-11-23T04:40:05.601Z,49.60
2018-11-23T04:41:05.590Z,46.30
2018-11-23T04:42:05.577Z,51.50
2018-11-23T04:43:05.617Z,48.20
2018-11-23T04:44:05.556Z,48.80
2018-11-23T04:45:05.548Z,51.00
2018-11-23T04:46:05.535Z,49.70
2018-11-23T04:47:05.523Z,47.80
2018-11-23T04:48:05.511Z,51.90
2018-11-23T04:49:05.548Z,48.10
2018-11-23T04:50:05.490Z,47.80
2018-11-23T04:51:05.478Z,48.30
2018-11-23T04:52:05.467Z,44.40
2018-11-23T04:53:05.456Z,51.50
2018-11-23T04:54:05.444Z,50.80
2018-11-23T04:55:05.553Z,47.90
2018-11-23T04:56:05.423Z,46.30
2018-11-23T04:57:05.416Z,47.30
2018-11-23T04:58:05.408Z,46.80
2018-11-23T04:59:05.389Z,47.50
2018-11-23T05:00:05.388Z,47.90
2018-11-23T05:01:05.551Z,48.80
2018-11-23T05:02:05.409Z,50.00
2018-11-23T05:03:05.391Z,44.90
2018-11-23T05:04:05.553Z,47.60
2018-11-23T05:05:05.324Z,48.20
2018-11-23T05:06:05.312Z,46.40
2018-11-23T05:07:05.302Z,45.80
2018-11-23T05:08:05.335Z,46.60
2018-11-23T05:09:05.324Z,46.40
2018-11-23T05:10:05.271Z,46.50
2018-11-23T05:11:05.259Z,45.20
2018-11-23T05:12:05.293Z,48.10
2018-11-23T05:13:05.236Z,43.30
2018-11-23T05:14:05.234Z,43.30
2018-11-23T05:15:05.213Z,40.40
2018-11-23T05:16:05.204Z,43.90
2018-11-23T05:17:05.494Z,43.30
2018-11-23T05:18:05.181Z,44.80
2018-11-23T05:19:05.176Z,47.80
2018-11-23T05:20:05.158Z,46.70
2018-11-23T05:21:05.150Z,44.70
2018-11-23T05:22:05.136Z,45.20
2018-11-23T05:23:05.169Z,43.80
2018-11-23T05:24:05.165Z,43.90
2018-11-23T05:25:05.104Z,43.60
2018-11-23T05:26:05.092Z,44.70
2018-11-23T05:27:05.081Z,46.60
2018-11-23T05:28:05.070Z,45.80
2018-11-23T05:29:05.061Z,45.00
2018-11-23T05:30:05.092Z,43.80
2018-11-23T05:31:05.039Z,44.60
2018-11-23T05:32:05.026Z,45.30
2018-11-23T05:33:05.016Z,43.00
2018-11-23T05:34:05.005Z,43.60
2018-11-23T05:35:04.993Z,41.90
2018-11-23T05:36:05.030Z,46.90
2018-11-23T05:37:04.972Z,47.30
2018-11-23T05:38:04.959Z,46.70
2018-11-23T05:39:04.995Z,45.80
2018-11-23T05:40:04.936Z,43.00
2018-11-23T05:41:04.928Z,46.40
2018-11-23T05:42:04.916Z,47.20
2018-11-23T05:43:04.907Z,47.20
2018-11-23T05:44:04.937Z,47.70
2018-11-23T05:45:04.928Z,48.60
2018-11-23T05:46:04.870Z,48.20
2018-11-23T05:47:04.861Z,48.80
2018-11-23T05:48:04.850Z,47.50
2018-11-23T05:49:04.840Z,49.60
2018-11-23T05:50:04.826Z,49.80
2018-11-23T05:51:04.862Z,49.80
2018-11-23T05:52:04.808Z,48.30
2018-11-23T05:53:05.046Z,49.00
2018-11-23T05:54:04.786Z,46.50
2018-11-23T05:55:04.776Z,43.90
2018-11-23T05:56:04.762Z,46.30
2018-11-23T05:57:04.750Z,51.70
2018-11-23T05:58:04.784Z,48.10
2018-11-23T05:59:04.776Z,47.40
2018-11-23T06:00:04.718Z,48.60
2018-11-23T06:01:04.712Z,43.20
2018-11-23T06:02:04.697Z,46.90
2018-11-23T06:03:04.686Z,47.20
2018-11-23T06:04:04.681Z,49.70
2018-11-23T06:05:04.715Z,45.90
2018-11-23T06:06:04.656Z,47.60
2018-11-23T06:07:04.643Z,47.50
2018-11-23T06:08:04.631Z,45.80
2018-11-23T06:09:04.621Z,45.00
2018-11-23T06:10:04.617Z,45.00
2018-11-23T06:11:04.646Z,47.30
2018-11-23T06:12:04.590Z,48.80
2018-11-23T06:13:04.588Z,42.80
2018-11-23T06:14:04.563Z,44.40
2018-11-23T06:15:04.602Z,41.20
2018-11-23T06:16:04.545Z,45.50
2018-11-23T06:17:04.537Z,45.30
2018-11-23T06:18:04.521Z,44.50
2018-11-23T06:19:04.514Z,43.90
2018-11-23T06:20:04.511Z,42.90
2018-11-23T06:21:04.549Z,47.20
2018-11-23T06:22:04.478Z,48.60
2018-11-23T06:23:04.473Z,42.90
2018-11-23T06:24:04.461Z,44.30
2018-11-23T06:25:04.444Z,43.90
2018-11-23T06:26:04.435Z,44.90
2018-11-23T06:27:04.470Z,45.10
2018-11-23T06:28:04.415Z,41.70
2018-11-23T06:29:04.400Z,44.10
2018-11-23T06:30:04.448Z,45.60
2018-11-23T06:31:04.378Z,45.50
2018-11-23T06:32:04.367Z,44.40
2018-11-23T06:33:04.360Z,43.70
2018-11-23T06:34:04.346Z,44.40
2018-11-23T06:35:04.345Z,42.50
2018-11-23T06:36:04.369Z,46.00
2018-11-23T06:37:04.313Z,45.20
2018-11-23T06:38:04.304Z,45.30
2018-11-23T06:39:04.287Z,45.80
2018-11-23T06:40:04.278Z,45.80
2018-11-23T06:41:10.108Z,44.40
2018-11-23T06:42:05.302Z,44.80
2018-11-23T06:43:04.246Z,45.30
2018-11-23T06:44:04.233Z,44.70
2018-11-23T06:45:04.225Z,47.60
2018-11-23T06:46:04.210Z,45.60
2018-11-23T06:47:04.521Z,47.70
2018-11-23T06:48:04.195Z,45.20
2018-11-23T06:49:04.179Z,46.30
2018-11-23T06:50:04.171Z,46.90
2018-11-23T06:51:04.169Z,44.70
2018-11-23T06:52:04.183Z,46.00
2018-11-23T06:53:04.184Z,48.60
2018-11-23T06:54:04.122Z,44.10
2018-11-23T06:55:04.119Z,47.80
2018-11-23T06:56:04.103Z,48.00
2018-11-23T06:57:04.126Z,46.00
2018-11-23T06:58:04.149Z,46.00
2018-11-23T06:59:04.125Z,46.10
2018-11-23T07:00:04.065Z,44.30
2018-11-23T07:01:04.057Z,44.90
2018-11-23T07:02:04.041Z,47.70
2018-11-23T07:03:04.029Z,43.50
2018-11-23T07:04:04.023Z,43.30
2018-11-23T07:05:04.133Z,46.20
2018-11-23T07:06:04.014Z,43.40
2018-11-23T07:07:04.045Z,43.80
2018-11-23T07:08:04.007Z,47.20
2018-11-23T07:09:03.959Z,44.50
2018-11-23T07:10:03.971Z,44.50
2018-11-23T07:11:03.985Z,44.70
2018-11-23T07:12:03.924Z,45.60
2018-11-23T07:13:03.914Z,43.20
2018-11-23T07:14:04.203Z,43.10
2018-11-23T07:15:03.899Z,43.20
2018-11-23T07:16:03.937Z,47.30
2018-11-23T07:17:03.911Z,42.60
2018-11-23T07:18:03.865Z,44.40
2018-11-23T07:19:03.852Z,44.70
2018-11-23T07:20:03.854Z,43.20
2018-11-23T07:21:03.828Z,44.40
2018-11-23T07:22:04.039Z,43.80
2018-11-23T07:23:03.804Z,47.20
2018-11-23T07:24:03.829Z,43.20
2018-11-23T07:25:03.810Z,46.20
2018-11-23T07:26:04.017Z,46.20
2018-11-23T07:27:03.763Z,45.40
2018-11-23T07:28:03.805Z,46.60
2018-11-23T07:29:03.748Z,45.70
2018-11-23T07:30:03.731Z,44.00
2018-11-23T07:31:03.785Z,42.80
2018-11-23T07:32:03.703Z,42.70
2018-11-23T07:33:03.698Z,44.40
2018-11-23T07:34:03.736Z,42.90
2018-11-23T07:35:03.675Z,46.10
2018-11-23T07:36:03.680Z,44.00
2018-11-23T07:37:03.658Z,45.60
2018-11-23T07:38:03.637Z,44.50
2018-11-23T07:39:03.627Z,46.40
2018-11-23T07:40:03.798Z,44.10
2018-11-23T07:41:03.604Z,46.40
2018-11-23T07:42:03.595Z,44.30
2018-11-23T07:43:03.642Z,45.10
2018-11-23T07:44:03.585Z,45.90
2018-11-23T07:45:03.560Z,44.20
2018-11-23T07:46:03.610Z,42.60
2018-11-23T07:47:03.546Z,45.80
2018-11-23T07:48:03.544Z,43.90
2018-11-23T07:49:03.563Z,46.40
2018-11-23T07:50:03.524Z,42.70
2018-11-23T07:51:03.505Z,43.60
2018-11-23T07:52:03.488Z,46.10
2018-11-23T07:53:03.474Z,47.60
2018-11-23T07:54:03.461Z,46.10
2018-11-23T07:55:03.500Z,49.60
2018-11-23T07:56:03.450Z,45.40
2018-11-23T07:57:03.467Z,41.90
2018-11-23T07:58:03.426Z,46.90
2018-11-23T07:59:03.403Z,43.80
2018-11-23T08:00:03.409Z,45.90
2018-11-23T08:01:03.463Z,44.40
2018-11-23T08:02:03.377Z,45.40
2018-11-23T08:03:03.368Z,44.30
2018-11-23T08:04:03.364Z,43.50
2018-11-23T08:05:03.347Z,45.50
2018-11-23T08:06:03.369Z,46.00
2018-11-23T08:07:03.386Z,46.10
2018-11-23T08:08:03.312Z,44.80
2018-11-23T08:09:03.297Z,44.30
2018-11-23T08:10:03.291Z,46.80
2018-11-23T08:11:03.564Z,42.20
2018-11-23T08:12:03.275Z,42.40
2018-11-23T08:13:03.254Z,46.20
2018-11-23T08:14:03.244Z,42.60
2018-11-23T08:15:03.231Z,41.70
2018-11-23T08:16:03.275Z,42.50
2018-11-23T08:17:03.212Z,43.80
2018-11-23T08:18:03.207Z,39.40
2018-11-23T08:19:03.229Z,44.00
2018-11-23T08:20:03.375Z,44.40
2018-11-23T08:21:03.169Z,43.80
2018-11-23T08:22:03.184Z,39.70
2018-11-23T08:23:03.143Z,42.40
2018-11-23T08:24:03.242Z,41.40
2018-11-23T08:25:03.120Z,45.00
2018-11-23T08:27:20.538Z,39.30
2018-11-23T08:28:20.490Z,43.20
2018-11-23T08:29:20.472Z,46.90
2018-11-23T08:30:20.468Z,46.70
2018-11-23T08:31:20.454Z,43.10
2018-11-23T08:32:20.457Z,44.20
2018-11-23T08:33:20.476Z,43.10
2018-11-23T08:34:20.429Z,43.80
2018-11-23T08:35:20.411Z,41.00
2018-11-23T08:36:20.415Z,42.60
2018-11-23T08:37:20.483Z,43.50
2018-11-23T08:38:20.652Z,44.30
2018-11-23T08:39:20.380Z,45.30
2018-11-23T08:40:20.413Z,41.60
2018-11-23T08:41:20.357Z,42.30
2018-11-23T08:42:20.337Z,42.00
2018-11-23T08:43:20.344Z,41.00
2018-11-23T08:44:20.361Z,41.30
2018-11-23T08:45:20.312Z,43.00
2018-11-23T08:46:20.311Z,40.30
2018-11-23T08:47:20.300Z,42.20
2018-11-23T08:48:20.321Z,41.60
2018-11-23T08:49:20.275Z,40.80
2018-11-23T08:50:20.249Z,42.70
2018-11-23T08:51:20.236Z,41.00
2018-11-23T08:52:20.228Z,42.80
2018-11-23T08:53:20.215Z,41.40
2018-11-23T08:54:20.255Z,41.30
2018-11-23T08:55:20.191Z,42.70
2018-11-23T08:56:20.264Z,42.50
2018-11-23T08:57:20.168Z,43.90
2018-11-23T08:58:20.164Z,41.10
2018-11-23T08:59:20.146Z,46.70
2018-11-23T09:00:20.177Z,42.30
2018-11-23T09:01:20.175Z,41.30
2018-11-23T09:02:20.152Z,41.90
2018-11-23T09:03:20.230Z,41.80
2018-11-23T09:04:20.090Z,40.10
2018-11-23T09:05:20.093Z,40.90
2018-11-23T09:06:20.070Z,41.40
2018-11-23T09:07:20.066Z,44.40
2018-11-23T09:08:20.097Z,45.80
2018-11-23T09:09:20.129Z,42.10
2018-11-23T09:10:20.034Z,41.70
2018-11-23T09:11:20.028Z,40.90
2018-11-23T09:12:20.024Z,42.80
2018-11-23T09:13:19.996Z,43.70
2018-11-23T09:14:20.040Z,41.70
2018-11-23T09:15:19.979Z,41.80
2018-11-23T09:16:19.958Z,41.80
2018-11-23T09:17:20.009Z,43.20
2018-11-23T09:18:19.939Z,43.50
2018-11-23T09:19:19.983Z,40.20
2018-11-23T09:20:19.975Z,40.00
2018-11-23T09:21:19.923Z,42.20
2018-11-23T09:22:23.511Z,41.90
2018-11-23T09:23:19.893Z,40.20
2018-11-23T09:24:19.877Z,43.50
2018-11-23T09:25:19.921Z,40.30
2018-11-23T09:26:19.878Z,43.50
2018-11-23T09:27:19.856Z,42.60
2018-11-23T09:28:19.864Z,41.20
2018-11-23T09:29:19.826Z,41.10
2018-11-23T09:30:19.809Z,41.80
2018-11-23T09:31:19.885Z,41.40
2018-11-23T09:32:19.791Z,38.70
2018-11-23T09:33:19.775Z,39.90
2018-11-23T09:34:19.765Z,41.30
2018-11-23T09:35:19.793Z,39.90
2018-11-23T09:36:19.745Z,43.70
2018-11-23T09:37:19.792Z,40.00
2018-11-23T09:38:19.721Z,39.80
2018-11-23T09:39:19.709Z,40.90
2018-11-23T09:40:19.706Z,40.70
2018-11-23T09:41:19.702Z,40.30
2018-11-23T09:42:19.679Z,39.00
2018-11-23T09:43:20.135Z,40.90
2018-11-23T09:44:19.670Z,41.70
2018-11-23T09:45:19.655Z,37.20
2018-11-23T09:46:19.636Z,38.50
2018-11-23T09:47:19.628Z,37.80
2018-11-23T09:48:19.677Z,40.00
2018-11-23T09:49:19.687Z,38.00
2018-11-23T09:50:19.624Z,39.30
2018-11-23T09:51:19.654Z,39.10
2018-11-23T09:52:19.569Z,37.50
2018-11-23T09:53:19.577Z,41.70
2018-11-23T09:54:19.572Z,36.20
2018-11-23T09:55:19.549Z,42.90
2018-11-23T09:56:19.568Z,38.90
2018-11-23T09:57:19.656Z,38.80
2018-11-23T09:58:19.527Z,37.10
2018-11-23T09:59:19.505Z,41.00
2018-11-23T10:00:19.498Z,37.10
2018-11-23T10:01:19.523Z,39.00
2018-11-23T10:02:19.522Z,39.10
2018-11-23T10:03:19.460Z,36.50
2018-11-23T10:04:19.467Z,36.60
2018-11-23T10:05:19.495Z,38.10
2018-11-23T10:06:19.435Z,35.30
2018-11-23T10:07:19.416Z,38.80
2018-11-23T10:08:19.446Z,39.50
2018-11-23T10:09:19.429Z,37.00
2018-11-23T10:10:19.387Z,36.70
2018-11-23T10:11:19.423Z,40.40
2018-11-23T10:12:19.358Z,37.10
2018-11-23T10:13:19.405Z,41.40
2018-11-23T10:14:19.356Z,38.10
2018-11-23T10:15:19.325Z,36.40
2018-11-23T10:16:19.325Z,36.90
2018-11-23T10:17:19.323Z,38.80
2018-11-23T10:18:19.298Z,36.70
2018-11-23T10:19:19.377Z,37.40
2018-11-23T10:20:19.289Z,37.80
2018-11-23T10:21:19.327Z,40.90
2018-11-23T10:22:19.311Z,38.60
2018-11-23T10:23:19.248Z,38.40
2018-11-23T10:24:19.234Z,36.90
2018-11-23T10:25:19.267Z,37.20
2018-11-23T10:26:19.210Z,36.30
2018-11-23T10:27:19.205Z,33.70
2018-11-23T10:28:19.321Z,36.10
2018-11-23T10:29:19.202Z,39.00
2018-11-23T10:30:19.172Z,37.50
2018-11-23T10:31:19.257Z,37.00
2018-11-23T10:32:19.155Z,39.50
2018-11-23T10:33:19.157Z,38.30
2018-11-23T10:34:19.168Z,36.70
2018-11-23T10:35:19.114Z,34.70
2018-11-23T10:36:19.123Z,38.10
2018-11-23T10:37:19.173Z,36.50
2018-11-23T10:38:19.105Z,37.50
2018-11-23T10:39:19.242Z,36.90
2018-11-23T10:40:19.069Z,36.20
2018-11-23T10:41:19.055Z,37.80
2018-11-23T10:42:19.047Z,38.00
2018-11-23T10:43:19.022Z,35.70
2018-11-23T10:44:19.014Z,36.30
2018-11-23T10:45:19.056Z,35.90
2018-11-23T10:46:19.051Z,37.60
2018-11-23T10:47:19.118Z,37.00
2018-11-23T10:48:18.983Z,32.50
2018-11-23T10:49:18.969Z,32.80
2018-11-23T10:50:18.997Z,33.80
2018-11-23T10:51:18.938Z,38.30
2018-11-23T10:52:18.921Z,38.90
2018-11-23T10:53:18.910Z,35.00
2018-11-23T10:54:18.909Z,37.90
2018-11-23T10:55:18.902Z,37.90
2018-11-23T10:56:18.956Z,37.50
2018-11-23T10:57:18.914Z,37.50
2018-11-23T10:58:18.881Z,34.10
2018-11-23T10:59:18.892Z,36.30
2018-11-23T11:00:18.899Z,35.30
2018-11-23T11:01:18.840Z,33.00
2018-11-23T11:02:18.876Z,34.80
2018-11-23T11:03:18.853Z,35.50
2018-11-23T11:04:18.797Z,36.90
2018-11-23T11:05:18.783Z,40.00
2018-11-23T11:06:18.779Z,34.10
2018-11-23T11:07:18.769Z,36.40
2018-11-23T11:08:18.805Z,36.30
2018-11-23T11:09:18.749Z,36.20
2018-11-23T11:10:18.730Z,34.30
2018-11-23T11:11:18.720Z,34.90
2018-11-23T11:12:18.702Z,36.30
2018-11-23T11:13:18.705Z,36.10
2018-11-23T11:14:18.745Z,36.10
2018-11-23T11:15:18.672Z,33.60
2018-11-23T11:16:18.663Z,36.50
2018-11-23T11:17:18.655Z,38.40
2018-11-23T11:18:18.640Z,34.80
2018-11-23T11:19:18.640Z,34.40
2018-11-23T11:20:18.666Z,37.50
2018-11-23T11:21:18.619Z,32.30
2018-11-23T11:22:18.610Z,35.30
2018-11-23T11:23:18.592Z,34.80
2018-11-23T11:24:18.571Z,35.10
2018-11-23T11:25:18.565Z,31.10
2018-11-23T11:26:18.621Z,34.10
2018-11-23T11:27:18.584Z,36.40
2018-11-23T11:28:26.247Z,33.00
2018-11-23T11:29:18.521Z,32.80
2018-11-23T11:30:18.512Z,34.10
2018-11-23T11:31:18.496Z,35.30
2018-11-23T11:32:18.540Z,34.10
2018-11-23T11:33:18.483Z,33.80
2018-11-23T11:34:18.465Z,34.40
2018-11-23T11:35:18.454Z,33.80
2018-11-23T11:36:18.451Z,34.70
2018-11-23T11:37:18.452Z,34.70
2018-11-23T11:38:18.471Z,34.30
2018-11-23T11:39:18.421Z,34.10
2018-11-23T11:40:18.458Z,35.20
2018-11-23T11:41:18.391Z,30.80
2018-11-23T11:42:18.381Z,32.70
2018-11-23T11:43:18.373Z,32.20
2018-11-23T11:44:18.370Z,33.40
2018-11-23T11:45:18.344Z,34.00
2018-11-23T11:46:18.449Z,34.80
2018-11-23T11:47:18.370Z,34.60
2018-11-23T11:48:18.316Z,30.10
2018-11-23T11:49:18.322Z,33.70
2018-11-23T11:50:18.339Z,34.10
2018-11-23T11:51:18.282Z,31.70
2018-11-23T11:52:18.304Z,36.20
2018-11-23T11:53:18.374Z,32.40
2018-11-23T11:54:18.246Z,34.00
2018-11-23T11:55:18.262Z,31.70
2018-11-23T11:56:18.272Z,34.20
2018-11-23T11:57:20.807Z,32.40
2018-11-23T11:58:22.925Z,31.10
2018-11-23T11:59:19.456Z,31.50
2018-11-23T12:00:18.224Z,32.20
2018-11-23T12:01:18.183Z,32.10
2018-11-23T12:02:18.660Z,30.70
2018-11-23T12:03:18.158Z,31.00
2018-11-23T12:04:18.193Z,31.30
2018-11-23T12:05:18.145Z,32.00
2018-11-23T12:06:18.115Z,33.70
2018-11-23T12:07:18.116Z,31.90
2018-11-23T12:08:18.095Z,31.20
2018-11-23T12:09:18.106Z,30.80
2018-11-23T12:10:18.130Z,32.30
2018-11-23T12:11:18.081Z,32.10
2018-11-23T12:12:18.053Z,31.90
2018-11-23T12:13:18.049Z,31.20
2018-11-23T12:14:18.035Z,33.40
2018-11-23T12:15:18.018Z,32.60
2018-11-23T12:16:18.051Z,32.30
2018-11-23T12:17:17.996Z,29.90
2018-11-23T12:18:17.996Z,30.90
2018-11-23T12:19:18.039Z,32.30
2018-11-23T12:20:17.973Z,31.20
2018-11-23T12:21:17.952Z,32.90
2018-11-23T12:22:17.951Z,31.10
2018-11-23T12:23:17.929Z,32.80
2018-11-23T12:24:17.941Z,30.50
2018-11-23T12:25:17.957Z,31.70
2018-11-23T12:26:17.897Z,30.40
2018-11-23T12:27:17.933Z,34.70
2018-11-23T12:28:17.870Z,32.60
2018-11-23T12:29:17.864Z,33.20
2018-11-23T12:30:17.852Z,31.10
2018-11-23T12:31:17.839Z,35.10
2018-11-23T12:32:17.855Z,31.40
2018-11-23T12:33:17.873Z,31.40
2018-11-23T12:34:17.803Z,31.70
2018-11-23T12:35:17.795Z,29.10
2018-11-23T12:36:17.784Z,30.60
2018-11-23T12:37:17.773Z,29.60
2018-11-23T12:38:18.056Z,28.80
2018-11-23T12:39:17.748Z,32.70
2018-11-23T12:40:17.739Z,30.50
2018-11-23T12:41:17.725Z,29.10
2018-11-23T12:42:17.720Z,31.50
2018-11-23T12:43:17.703Z,29.70
2018-11-23T12:44:17.759Z,28.60
2018-11-23T12:45:17.685Z,29.80
2018-11-23T12:46:17.717Z,29.30
2018-11-23T12:47:17.663Z,29.50
2018-11-23T12:48:17.662Z,28.00
2018-11-23T12:49:17.642Z,31.50
2018-11-23T12:50:17.627Z,29.30
2018-11-23T12:51:17.621Z,30.50
2018-11-23T12:52:17.660Z,29.90
2018-11-23T12:53:17.591Z,28.00